Shiloh, Louisiana
Current Conditions -  °F | °C
As of 12:35 AM on Sunday 26 Oct 2014 (Local Time) from KRSN Reporting Station
Clear Clear  
Wind Chill: 65°   Ceiling: Unl
Heat Index: 65°   Visibility: 10mi
Dew Point: 60°   Wind: 5mph
Humidity: 85%   Direction: 220°SW
Pressure: 30.09"   Gusts: NA
Location:  32.8225°N, 92.6234°W
Report Text: KRSN 260535Z AUTO 22004KT 10SM CLR 18/16 A3009 RMK AO2 T01810155
Loading
Personal Weather Stations






























Interactive Weather Map
Tropical Storm Tracking
New forecast layout! Learn more

10-Day Weather Forecast

Advertisements
Track Severe Weather on mobile